createdAt,value
2023-04-21T00:00:11.684Z,26.43
2023-04-21T00:02:43.445Z,27.87
2023-04-21T00:05:12.449Z,27.17
2023-04-21T00:07:41.641Z,28.60
2023-04-21T00:10:12.606Z,27.60
2023-04-21T00:12:40.186Z,27.43
2023-04-21T00:15:08.710Z,28.20
2023-04-21T00:17:36.264Z,29.47
2023-04-21T00:20:05.009Z,26.80
2023-04-21T00:22:33.050Z,27.97
2023-04-21T00:25:00.297Z,26.70
2023-04-21T00:27:27.662Z,28.73
2023-04-21T00:29:55.047Z,28.43
2023-04-21T00:32:22.410Z,27.80
2023-04-21T00:34:51.057Z,27.67
2023-04-21T00:37:20.237Z,28.13
2023-04-21T00:39:47.734Z,28.50
2023-04-21T00:42:18.415Z,28.17
2023-04-21T00:44:45.986Z,28.97
2023-04-21T00:47:13.972Z,28.90
2023-04-21T00:49:42.773Z,27.27
2023-04-21T00:52:10.337Z,29.50
2023-04-21T00:54:38.098Z,28.53
2023-04-21T00:57:07.944Z,29.67
2023-04-21T00:59:36.272Z,29.03
2023-04-21T01:02:04.003Z,28.07
2023-04-21T01:04:37.134Z,30.50
2023-04-21T01:07:05.223Z,31.87
2023-04-21T01:09:32.841Z,31.37
2023-04-21T01:12:04.471Z,31.77
2023-04-21T01:14:35.104Z,30.70
2023-04-21T01:17:06.324Z,29.30
2023-04-21T01:19:36.553Z,29.37
2023-04-21T01:22:04.233Z,30.80
2023-04-21T01:24:39.235Z,31.00
2023-04-21T01:27:10.772Z,30.13
2023-04-21T01:29:38.617Z,29.10
2023-04-21T01:32:08.744Z,29.30
2023-04-21T01:34:36.416Z,29.63
2023-04-21T01:37:04.581Z,31.30
2023-04-21T01:39:32.183Z,29.80
2023-04-21T01:41:59.617Z,29.20
2023-04-21T01:44:27.157Z,29.70
2023-04-21T01:46:54.576Z,30.50
2023-04-21T01:49:22.043Z,31.43
2023-04-21T01:51:49.356Z,29.57
2023-04-21T01:54:16.751Z,30.00
2023-04-21T01:56:44.159Z,29.20
2023-04-21T01:59:11.695Z,31.17
2023-04-21T02:01:39.298Z,31.00
2023-04-21T02:04:07.070Z,29.07
2023-04-21T02:06:34.720Z,29.53
2023-04-21T02:09:02.105Z,30.00
2023-04-21T02:11:31.890Z,29.27
2023-04-21T02:13:59.448Z,32.90
2023-04-21T02:16:28.037Z,28.90
2023-04-21T02:18:57.069Z,29.37
2023-04-21T02:21:25.264Z,30.60
2023-04-21T02:23:52.904Z,28.70
2023-04-21T02:26:21.032Z,28.43
2023-04-21T02:28:49.635Z,32.07
2023-04-21T02:31:17.740Z,31.10
2023-04-21T02:33:45.805Z,30.53
2023-04-21T02:36:13.323Z,29.30
2023-04-21T02:38:42.359Z,28.30
2023-04-21T02:41:11.367Z,31.20
2023-04-21T02:43:41.564Z,29.57
2023-04-21T02:46:09.522Z,30.50
2023-04-21T02:48:37.639Z,27.27
2023-04-21T02:51:06.433Z,30.20
2023-04-21T02:53:33.933Z,28.67
2023-04-21T02:56:04.601Z,29.13
2023-04-21T02:58:32.134Z,30.40
2023-04-21T03:01:00.721Z,28.53
2023-04-21T03:03:28.424Z,31.27
2023-04-21T03:06:01.142Z,29.20
2023-04-21T03:08:28.732Z,30.60
2023-04-21T03:10:56.342Z,29.13
2023-04-21T03:13:26.405Z,31.23
2023-04-21T03:15:55.978Z,29.40
2023-04-21T03:18:23.457Z,29.70
2023-04-21T03:20:51.533Z,30.43
2023-04-21T03:23:19.078Z,31.10
2023-04-21T03:25:46.503Z,29.30
2023-04-21T03:28:16.939Z,30.33
2023-04-21T03:30:46.389Z,30.00
2023-04-21T03:33:13.635Z,28.80
2023-04-21T03:35:41.580Z,29.60
2023-04-21T03:38:09.188Z,29.67
2023-04-21T03:40:36.497Z,30.50
2023-04-21T03:43:04.333Z,30.37
2023-04-21T03:45:37.779Z,29.00
2023-04-21T03:48:05.196Z,30.67
2023-04-21T03:50:32.362Z,31.00
2023-04-21T03:52:59.457Z,30.90
2023-04-21T03:55:26.640Z,31.50
2023-04-21T03:57:53.772Z,30.80
2023-04-21T04:00:21.242Z,32.50
2023-04-21T04:02:49.653Z,28.40
2023-04-21T04:05:18.608Z,30.20
2023-04-21T04:07:45.823Z,29.93
2023-04-21T04:10:13.040Z,30.37
2023-04-21T04:12:40.319Z,28.00
2023-04-21T04:15:07.849Z,28.60
2023-04-21T04:17:34.988Z,31.23
2023-04-21T04:20:04.419Z,28.40
2023-04-21T04:22:31.622Z,28.30
2023-04-21T04:24:59.685Z,27.50
2023-04-21T04:27:28.159Z,28.77
2023-04-21T04:29:55.296Z,29.77
2023-04-21T04:32:22.474Z,29.40
2023-04-21T04:34:52.488Z,29.73
2023-04-21T04:37:21.739Z,28.67
2023-04-21T04:39:50.305Z,29.63
2023-04-21T04:42:17.483Z,27.60
2023-04-21T04:44:44.803Z,30.07
2023-04-21T04:47:12.505Z,28.10
2023-04-21T04:49:39.639Z,29.63
2023-04-21T04:52:07.008Z,29.70
2023-04-21T04:54:34.236Z,26.90
2023-04-21T04:57:02.339Z,29.73
2023-04-21T04:59:30.836Z,27.10
2023-04-21T05:01:58.181Z,32.80
2023-04-21T05:04:26.100Z,32.20
2023-04-21T05:06:53.782Z,29.37
2023-04-21T05:09:22.220Z,27.50
2023-04-21T05:11:49.370Z,28.47
2023-04-21T05:14:17.607Z,29.00
2023-04-21T05:16:45.051Z,26.20
2023-04-21T05:19:12.280Z,28.33
2023-04-21T05:21:39.464Z,26.30
2023-04-21T05:24:06.693Z,27.30
2023-04-21T05:26:33.859Z,26.87
2023-04-21T05:29:05.341Z,25.30
2023-04-21T05:31:33.074Z,27.90
2023-04-21T05:34:00.304Z,25.00
2023-04-21T05:36:27.777Z,25.57
2023-04-21T05:38:55.006Z,28.20
2023-04-21T05:41:22.489Z,26.10
2023-04-21T05:43:49.659Z,26.90
2023-04-21T05:46:17.906Z,25.33
2023-04-21T05:48:45.178Z,26.03
2023-04-21T05:51:15.768Z,26.13
2023-04-21T05:53:44.527Z,25.43
2023-04-21T05:56:12.355Z,27.77
2023-04-21T05:58:40.179Z,28.17
2023-04-21T06:01:07.505Z,26.40
2023-04-21T06:03:34.930Z,28.20
2023-04-21T06:06:03.498Z,28.10
2023-04-21T06:08:30.758Z,28.53
2023-04-21T06:10:58.124Z,27.70
2023-04-21T06:13:27.782Z,26.67
2023-04-21T06:15:58.609Z,28.50
2023-04-21T06:18:27.876Z,28.00
2023-04-21T06:20:56.581Z,26.83
2023-04-21T06:23:25.445Z,27.17
2023-04-21T06:26:04.780Z,30.13
2023-04-21T06:28:35.081Z,27.10
2023-04-21T06:31:03.087Z,26.93
2023-04-21T06:33:30.931Z,28.67
2023-04-21T06:35:58.216Z,28.73
2023-04-21T06:38:25.379Z,26.60
2023-04-21T06:40:52.657Z,28.87
2023-04-21T06:43:20.045Z,27.77
2023-04-21T06:45:47.178Z,26.30
2023-04-21T06:48:14.360Z,27.37
2023-04-21T06:50:44.157Z,27.87
2023-04-21T06:53:11.784Z,28.30
2023-04-21T06:55:39.061Z,27.50
2023-04-21T06:58:07.605Z,24.40
2023-04-21T07:00:34.828Z,27.20
2023-04-21T07:03:03.584Z,24.97
2023-04-21T07:05:30.912Z,26.30
2023-04-21T07:07:59.861Z,26.73
2023-04-21T07:10:27.764Z,24.13
2023-04-21T07:12:55.768Z,28.27
2023-04-21T07:15:22.947Z,27.13
2023-04-21T07:17:50.384Z,25.83
2023-04-21T07:20:18.773Z,26.10
2023-04-21T07:22:46.893Z,25.23
2023-04-21T07:25:14.143Z,26.00
2023-04-21T07:27:41.318Z,26.40
2023-04-21T07:30:08.737Z,23.93
2023-04-21T07:32:38.397Z,27.83
2023-04-21T07:35:06.553Z,27.70
2023-04-21T07:37:33.755Z,28.50
2023-04-21T07:40:01.469Z,26.30
2023-04-21T07:42:28.824Z,25.40
2023-04-21T07:44:57.390Z,24.23
2023-04-21T07:47:24.707Z,27.00
2023-04-21T07:49:51.960Z,24.00
2023-04-21T07:52:19.307Z,25.30
2023-04-21T07:54:48.606Z,26.80
2023-04-21T07:57:15.919Z,25.50
2023-04-21T07:59:44.107Z,26.40
2023-04-21T08:02:11.347Z,26.70
2023-04-21T08:04:38.791Z,27.77
2023-04-21T08:07:06.340Z,27.10
2023-04-21T08:09:33.567Z,26.57
2023-04-21T08:12:02.094Z,28.20
2023-04-21T08:14:29.399Z,27.40
2023-04-21T08:16:58.872Z,26.30
2023-04-21T08:19:27.349Z,26.17
2023-04-21T08:21:54.492Z,26.13
2023-04-21T08:24:24.675Z,24.30
2023-04-21T08:26:51.894Z,26.73
2023-04-21T08:29:19.047Z,25.67
2023-04-21T08:31:46.550Z,27.40
2023-04-21T08:34:13.806Z,25.93
2023-04-21T08:36:42.648Z,25.43
2023-04-21T08:39:11.399Z,28.27
2023-04-21T08:41:41.070Z,23.90
2023-04-21T08:44:09.171Z,26.07
2023-04-21T08:46:36.810Z,26.37
2023-04-21T08:49:04.386Z,24.10
2023-04-21T08:51:31.943Z,25.07
2023-04-21T08:53:59.616Z,26.07
2023-04-21T08:56:26.899Z,26.73
2023-04-21T08:58:54.344Z,25.23
2023-04-21T09:01:22.835Z,26.00
2023-04-21T09:03:50.297Z,25.60
2023-04-21T09:06:46.315Z,27.20
2023-04-21T09:09:13.692Z,24.90
2023-04-21T09:11:40.895Z,25.57
2023-04-21T09:14:10.722Z,25.60
2023-04-21T09:16:37.895Z,27.60
2023-04-21T09:19:14.578Z,26.97
2023-04-21T09:21:44.445Z,26.30
2023-04-21T09:24:12.985Z,26.90
2023-04-21T09:26:44.440Z,26.80
2023-04-21T09:29:13.340Z,27.90
2023-04-21T09:31:40.788Z,28.17
2023-04-21T09:34:18.431Z,29.73
2023-04-21T09:36:46.925Z,28.47
2023-04-21T09:39:34.277Z,26.80
2023-04-21T09:42:02.204Z,27.23
2023-04-21T09:44:31.931Z,26.17
2023-04-21T09:47:09.430Z,25.37
2023-04-21T09:49:36.943Z,26.77
2023-04-21T09:54:34.722Z,25.07
2023-04-21T09:57:03.383Z,25.97
2023-04-21T09:59:32.889Z,26.77
2023-04-21T10:02:03.066Z,26.77
2023-04-21T10:04:33.123Z,27.20
2023-04-21T10:07:01.699Z,26.60
2023-04-21T10:09:34.022Z,24.80
2023-04-21T10:12:02.611Z,25.00
2023-04-21T10:14:29.980Z,23.53
2023-04-21T10:16:58.236Z,24.63
2023-04-21T10:19:26.728Z,23.47
2023-04-21T10:22:01.051Z,22.90
2023-04-21T10:24:32.299Z,22.30
2023-04-21T10:26:59.628Z,23.60
2023-04-21T10:29:40.145Z,22.20
2023-04-21T10:32:11.454Z,22.33
2023-04-21T10:34:40.551Z,22.10
2023-04-21T10:37:07.669Z,22.93
2023-04-21T10:39:42.936Z,23.40
2023-04-21T10:42:13.223Z,22.07
2023-04-21T10:44:44.172Z,22.40
2023-04-21T10:47:11.783Z,23.00
2023-04-21T10:49:39.708Z,22.70
2023-04-21T10:52:12.109Z,24.00
2023-04-21T10:54:45.886Z,23.43
2023-04-21T10:57:14.975Z,21.80
2023-04-21T10:59:42.713Z,28.10
2023-04-21T11:02:16.576Z,21.20
2023-04-21T11:04:47.808Z,22.33
2023-04-21T11:07:19.477Z,24.30
2023-04-21T11:09:47.488Z,22.70
2023-04-21T11:12:15.826Z,24.67
2023-04-21T11:14:44.291Z,23.77
2023-04-21T11:17:12.601Z,23.43
2023-04-21T11:19:39.848Z,22.80
2023-04-21T11:22:08.364Z,22.70
2023-04-21T11:24:38.689Z,21.80
2023-04-21T11:27:12.234Z,21.30
2023-04-21T11:29:40.630Z,22.33
2023-04-21T11:32:08.722Z,19.97
2023-04-21T11:34:38.934Z,21.53
2023-04-21T11:37:08.198Z,20.60
2023-04-21T11:39:35.467Z,21.57
2023-04-21T11:42:03.155Z,20.57
2023-04-21T11:44:33.186Z,20.20
2023-04-21T11:47:00.611Z,23.53
2023-04-21T11:49:30.874Z,20.67
2023-04-21T11:51:58.095Z,18.50
2023-04-21T11:54:25.642Z,21.03
2023-04-21T11:56:55.110Z,18.40
2023-04-21T11:59:26.261Z,20.93
2023-04-21T12:01:54.610Z,18.77
2023-04-21T12:04:23.299Z,20.70
2023-04-21T12:07:17.176Z,21.73
2023-04-21T12:09:45.817Z,18.80
2023-04-21T12:12:13.019Z,17.63
2023-04-21T12:14:44.855Z,18.03
2023-04-21T12:17:12.078Z,18.30
2023-04-21T12:19:40.387Z,17.07
2023-04-21T12:22:11.253Z,19.00
2023-04-21T12:24:39.064Z,17.93
2023-04-21T12:27:06.735Z,17.20
2023-04-21T12:29:35.656Z,16.70
2023-04-21T12:32:04.431Z,17.53
2023-04-21T12:34:31.652Z,18.23
2023-04-21T12:36:58.816Z,17.03
2023-04-21T12:39:26.043Z,18.13
2023-04-21T12:41:54.051Z,17.33
2023-04-21T12:44:21.830Z,17.73
2023-04-21T12:46:49.430Z,17.97
2023-04-21T12:49:17.261Z,19.77
2023-04-21T12:51:44.543Z,19.60
2023-04-21T12:54:15.540Z,18.43
2023-04-21T12:56:43.451Z,15.53
2023-04-21T12:59:11.561Z,16.50
2023-04-21T13:01:41.273Z,16.60
2023-04-21T13:04:08.833Z,16.27
2023-04-21T13:06:36.476Z,16.57
2023-04-21T13:09:03.669Z,16.10
2023-04-21T13:11:31.042Z,16.53
2023-04-21T13:13:59.954Z,16.47
2023-04-21T13:16:29.532Z,15.00
2023-04-21T13:18:57.677Z,16.33
2023-04-21T13:21:24.947Z,13.90
2023-04-21T13:23:53.016Z,13.93
2023-04-21T13:26:20.257Z,13.60
2023-04-21T13:28:47.522Z,12.83
2023-04-21T13:31:15.536Z,15.80
2023-04-21T13:33:43.174Z,15.00
2023-04-21T13:36:12.811Z,13.53
2023-04-21T13:38:41.106Z,14.10
2023-04-21T13:41:09.262Z,14.40
2023-04-21T13:43:36.662Z,12.90
2023-04-21T13:46:04.125Z,13.27
2023-04-21T13:48:31.363Z,11.87
2023-04-21T13:50:59.866Z,11.53
2023-04-21T13:53:27.383Z,11.40
2023-04-21T13:55:57.627Z,12.00
2023-04-21T13:58:26.234Z,13.27
2023-04-21T14:00:56.117Z,13.63
2023-04-21T14:03:24.023Z,12.50
2023-04-21T14:05:51.417Z,11.70
2023-04-21T14:08:21.021Z,10.90
2023-04-21T14:10:49.222Z,13.40
2023-04-21T14:13:27.252Z,10.73
2023-04-21T14:16:02.077Z,11.47
2023-04-21T14:18:29.421Z,11.60
2023-04-21T14:20:58.152Z,10.47
2023-04-21T14:23:25.370Z,10.57
2023-04-21T14:25:54.953Z,11.37
2023-04-21T14:28:22.499Z,10.60
2023-04-21T14:30:52.042Z,10.20
2023-04-21T14:33:19.697Z,11.80
2023-04-21T14:35:49.262Z,12.80
2023-04-21T14:38:16.617Z,11.70
2023-04-21T14:40:44.842Z,11.00
2023-04-21T14:43:12.050Z,12.50
2023-04-21T14:45:41.061Z,12.23
2023-04-21T14:48:11.656Z,12.20
2023-04-21T14:50:39.215Z,11.87
2023-04-21T14:53:07.883Z,10.30
2023-04-21T14:55:35.327Z,10.43
2023-04-21T14:58:03.138Z,10.07
2023-04-21T15:00:34.596Z,9.07
2023-04-21T15:03:01.989Z,9.60
2023-04-21T15:05:29.307Z,10.87
2023-04-21T15:07:58.038Z,10.17
2023-04-21T15:10:25.222Z,10.90
2023-04-21T15:12:54.336Z,11.93
2023-04-21T15:15:21.544Z,11.53
2023-04-21T15:17:50.232Z,11.63
2023-04-21T15:20:17.825Z,11.10
2023-04-21T15:22:45.072Z,11.43
2023-04-21T15:25:12.332Z,9.80
2023-04-21T15:27:39.553Z,10.50
2023-04-21T15:30:07.022Z,10.10
2023-04-21T15:32:36.632Z,10.10
2023-04-21T15:35:03.981Z,9.37
2023-04-21T15:37:31.178Z,11.33
2023-04-21T15:39:58.485Z,10.13
2023-04-21T15:42:25.866Z,10.63
2023-04-21T15:44:53.595Z,10.20
2023-04-21T15:47:20.894Z,11.17
2023-04-21T15:49:48.172Z,10.20
2023-04-21T15:52:15.505Z,10.20
2023-04-21T15:54:46.019Z,9.90
2023-04-21T15:57:13.151Z,9.13
2023-04-21T15:59:41.139Z,10.87
2023-04-21T16:02:09.796Z,9.00
2023-04-21T16:04:37.532Z,10.20
2023-04-21T16:07:06.224Z,9.43
2023-04-21T16:09:33.452Z,10.27
2023-04-21T16:12:08.403Z,9.37
2023-04-21T16:14:50.878Z,10.20
2023-04-21T16:17:26.331Z,9.47
2023-04-21T16:19:54.261Z,9.37
2023-04-21T16:22:21.712Z,8.47
2023-04-21T16:24:49.874Z,9.40
2023-04-21T16:27:18.164Z,9.27
2023-04-21T16:29:45.408Z,9.00
2023-04-21T16:32:12.644Z,9.00
2023-04-21T16:34:40.098Z,9.23
2023-04-21T16:37:07.982Z,9.23
2023-04-21T16:39:36.390Z,9.20
2023-04-21T16:42:03.575Z,8.20
2023-04-21T16:44:31.416Z,9.80
2023-04-21T16:47:02.421Z,9.17
2023-04-21T16:49:31.336Z,8.83
2023-04-21T16:51:58.600Z,9.60
2023-04-21T16:54:25.937Z,7.63
2023-04-21T16:56:54.208Z,9.27
2023-04-21T16:59:23.992Z,9.43
2023-04-21T17:01:51.269Z,8.57
2023-04-21T17:04:18.854Z,8.37
2023-04-21T17:06:48.092Z,7.83
2023-04-21T17:09:15.389Z,8.57
2023-04-21T17:11:42.565Z,7.10
2023-04-21T17:14:10.730Z,7.30
2023-04-21T17:16:37.947Z,7.23
2023-04-21T17:19:05.508Z,8.03
2023-04-21T17:21:32.677Z,7.40
2023-04-21T17:24:00.529Z,7.90
2023-04-21T17:26:27.838Z,7.50
2023-04-21T17:28:57.415Z,8.20
2023-04-21T17:31:24.716Z,7.00
2023-04-21T17:33:53.169Z,6.63
2023-04-21T17:36:21.429Z,7.73
2023-04-21T17:38:49.820Z,6.77
2023-04-21T17:41:17.094Z,6.10
2023-04-21T17:43:47.731Z,8.20
2023-04-21T17:46:14.909Z,6.77
2023-04-21T17:48:42.096Z,7.30
2023-04-21T17:51:10.137Z,7.20
2023-04-21T17:53:37.557Z,7.20
2023-04-21T17:56:04.762Z,7.53
2023-04-21T17:58:31.913Z,7.40
2023-04-21T18:00:59.482Z,6.80
2023-04-21T18:03:28.378Z,7.27
2023-04-21T18:05:56.812Z,7.73
2023-04-21T18:08:24.068Z,4.60
2023-04-21T18:10:51.253Z,4.13
2023-04-21T18:13:18.443Z,4.03
2023-04-21T18:15:45.718Z,3.93
2023-04-21T18:18:14.202Z,5.30
2023-04-21T18:20:41.475Z,3.60
2023-04-21T18:23:09.857Z,3.80
2023-04-21T18:25:42.614Z,3.30
2023-04-21T18:28:14.215Z,3.33
2023-04-21T18:30:41.808Z,3.63
2023-04-21T18:33:10.202Z,3.60
2023-04-21T18:35:41.829Z,4.10
2023-04-21T18:38:11.423Z,3.90
2023-04-21T18:40:40.650Z,4.90
2023-04-21T18:43:09.371Z,3.90
2023-04-21T18:45:36.583Z,3.43
2023-04-21T18:48:05.186Z,3.70
2023-04-21T18:50:34.620Z,4.20
2023-04-21T18:53:03.102Z,4.20
2023-04-21T18:55:33.368Z,4.90
2023-04-21T18:58:00.571Z,5.00
2023-04-21T19:00:27.738Z,4.67
2023-04-21T19:02:55.132Z,5.80
2023-04-21T19:05:22.630Z,5.47
2023-04-21T19:07:51.344Z,5.20
2023-04-21T19:10:18.671Z,5.87
2023-04-21T19:12:45.853Z,5.37
2023-04-21T19:15:13.082Z,6.60
2023-04-21T19:17:43.436Z,6.17
2023-04-21T19:20:10.950Z,7.13
2023-04-21T19:22:38.187Z,7.10
2023-04-21T19:25:10.775Z,9.33
2023-04-21T19:27:37.948Z,9.43
2023-04-21T19:30:06.745Z,7.00
2023-04-21T19:32:37.052Z,6.90
2023-04-21T19:35:04.393Z,7.20
2023-04-21T19:37:35.259Z,7.57
2023-04-21T19:40:06.155Z,8.13
2023-04-21T19:42:33.633Z,12.27
2023-04-21T19:45:00.880Z,10.40
2023-04-21T19:47:28.286Z,8.10
2023-04-21T19:49:58.026Z,7.60
2023-04-21T19:52:25.725Z,8.47
2023-04-21T19:54:52.901Z,8.00
2023-04-21T19:57:20.692Z,10.20
2023-04-21T19:59:49.700Z,11.10
2023-04-21T20:02:17.031Z,9.47
2023-04-21T20:04:44.458Z,9.33
2023-04-21T20:07:11.962Z,10.60
2023-04-21T20:09:39.402Z,10.90
2023-04-21T20:12:06.797Z,9.53
2023-04-21T20:14:34.668Z,8.80
2023-04-21T20:17:02.516Z,9.10
2023-04-21T20:19:31.720Z,7.80
2023-04-21T20:21:59.186Z,9.03
2023-04-21T20:24:27.051Z,8.87
2023-04-21T20:26:54.293Z,10.20
2023-04-21T20:29:21.571Z,9.23
2023-04-21T20:31:50.842Z,8.13
2023-04-21T20:34:18.130Z,7.90
2023-04-21T20:36:45.552Z,7.70
2023-04-21T20:39:14.537Z,7.03
2023-04-21T20:41:45.637Z,7.40
2023-04-21T20:44:12.948Z,7.87
2023-04-21T20:46:40.770Z,7.67
2023-04-21T20:49:08.026Z,7.80
2023-04-21T20:51:35.244Z,7.60
2023-04-21T20:54:02.616Z,6.67
2023-04-21T20:56:29.884Z,33.47
2023-04-21T20:58:57.154Z,7.80
2023-04-21T21:01:24.459Z,7.60
2023-04-21T21:03:51.907Z,7.47
2023-04-21T21:06:19.774Z,7.07
2023-04-21T21:08:49.342Z,6.70
2023-04-21T21:11:17.553Z,6.90
2023-04-21T21:13:45.360Z,6.53
2023-04-21T21:16:12.560Z,5.90
2023-04-21T21:18:41.735Z,6.97
2023-04-21T21:21:09.012Z,6.60
2023-04-21T21:23:37.887Z,6.80
2023-04-21T21:26:06.142Z,7.70
2023-04-21T21:28:33.323Z,6.10
2023-04-21T21:31:00.619Z,6.87
2023-04-21T21:33:27.844Z,6.10
2023-04-21T21:35:55.147Z,6.40
2023-04-21T21:38:22.399Z,7.10
2023-04-21T21:40:49.858Z,6.73
2023-04-21T21:43:17.004Z,7.10
2023-04-21T21:45:44.476Z,7.00
2023-04-21T21:48:11.861Z,7.20
2023-04-21T21:50:39.125Z,7.30
2023-04-21T21:53:07.096Z,7.77
2023-04-21T21:55:34.317Z,6.80
2023-04-21T21:58:03.570Z,7.60
2023-04-21T22:00:32.298Z,13.37
2023-04-21T22:03:00.067Z,8.60
2023-04-21T22:05:27.715Z,8.10
2023-04-21T22:07:56.917Z,7.20
2023-04-21T22:10:25.610Z,7.47
2023-04-21T22:12:54.198Z,7.10
2023-04-21T22:15:22.304Z,6.80
2023-04-21T22:17:53.039Z,7.73
2023-04-21T22:20:21.920Z,8.07
2023-04-21T22:22:49.987Z,7.80
2023-04-21T22:25:17.182Z,8.47
2023-04-21T22:27:44.349Z,8.20
2023-04-21T22:30:12.132Z,7.30
2023-04-21T22:32:39.558Z,7.87
2023-04-21T22:35:06.759Z,9.43
2023-04-21T22:37:33.882Z,8.20
2023-04-21T22:40:01.459Z,7.87
2023-04-21T22:42:28.610Z,8.30
2023-04-21T22:44:55.776Z,7.57
2023-04-21T22:47:23.290Z,7.83
2023-04-21T22:49:51.201Z,7.70
2023-04-21T22:52:18.343Z,7.77
2023-04-21T22:54:47.625Z,7.87
2023-04-21T22:57:14.866Z,8.27
2023-04-21T22:59:43.621Z,8.40
2023-04-21T23:02:13.612Z,7.97
2023-04-21T23:04:42.778Z,7.63
2023-04-21T23:07:10.248Z,7.40
2023-04-21T23:09:38.072Z,7.50
2023-04-21T23:12:06.143Z,8.30
2023-04-21T23:14:33.692Z,7.30
2023-04-21T23:17:01.369Z,8.40
2023-04-21T23:19:29.018Z,8.43
2023-04-21T23:21:56.544Z,8.77
2023-04-21T23:24:24.055Z,7.93
2023-04-21T23:26:52.717Z,8.33
2023-04-21T23:29:22.830Z,8.10
2023-04-21T23:31:50.307Z,7.70
2023-04-21T23:34:17.752Z,7.80
2023-04-21T23:36:48.841Z,9.13
2023-04-21T23:39:18.921Z,10.10
2023-04-21T23:41:47.902Z,8.47
2023-04-21T23:44:15.303Z,9.23
2023-04-21T23:46:44.779Z,8.73
2023-04-21T23:49:12.187Z,9.00
2023-04-21T23:51:39.824Z,8.17
2023-04-21T23:54:09.645Z,8.90
2023-04-21T23:56:36.994Z,8.40
2023-04-21T23:59:06.439Z,8.70
